sensor_id;sensor_type;location;lat;lon;timestamp;P1;durP1;ratioP1;P2;durP2;ratioP2
68614;SDS011;55593;51.994;5.882;2022-11-20T00:02:13;20.95;;;11.85;;
68614;SDS011;55593;51.994;5.882;2022-11-20T00:04:43;18.05;;;10.95;;
68614;SDS011;55593;51.994;5.882;2022-11-20T00:07:12;17.55;;;10.85;;
68614;SDS011;55593;51.994;5.882;2022-11-20T00:09:41;16.35;;;10.45;;
68614;SDS011;55593;51.994;5.882;2022-11-20T00:12:10;17.00;;;10.57;;
68614;SDS011;55593;51.994;5.882;2022-11-20T00:14:39;17.52;;;10.73;;
68614;SDS011;55593;51.994;5.882;2022-11-20T00:17:08;18.30;;;12.57;;
68614;SDS011;55593;51.994;5.882;2022-11-20T00:19:40;17.13;;;11.25;;
68614;SDS011;55593;51.994;5.882;2022-11-20T00:22:09;17.15;;;11.50;;
68614;SDS011;55593;51.994;5.882;2022-11-20T00:24:38;17.80;;;11.98;;
68614;SDS011;55593;51.994;5.882;2022-11-20T00:27:08;23.33;;;13.30;;
68614;SDS011;55593;51.994;5.882;2022-11-20T00:29:37;17.02;;;12.05;;
68614;SDS011;55593;51.994;5.882;2022-11-20T00:32:06;24.80;;;15.13;;
68614;SDS011;55593;51.994;5.882;2022-11-20T00:34:35;21.83;;;16.15;;
68614;SDS011;55593;51.994;5.882;2022-11-20T00:37:07;22.58;;;15.07;;
68614;SDS011;55593;51.994;5.882;2022-11-20T00:39:36;20.00;;;13.27;;
68614;SDS011;55593;51.994;5.882;2022-11-20T00:42:05;24.38;;;14.32;;
68614;SDS011;55593;51.994;5.882;2022-11-20T00:44:34;22.23;;;12.32;;
68614;SDS011;55593;51.994;5.882;2022-11-20T00:47:04;19.98;;;12.63;;
68614;SDS011;55593;51.994;5.882;2022-11-20T00:49:33;21.05;;;12.85;;
68614;SDS011;55593;51.994;5.882;2022-11-20T00:52:02;18.48;;;11.38;;
68614;SDS011;55593;51.994;5.882;2022-11-20T00:54:34;19.10;;;12.90;;
68614;SDS011;55593;51.994;5.882;2022-11-20T00:57:03;19.40;;;12.15;;
68614;SDS011;55593;51.994;5.882;2022-11-20T00:59:32;21.08;;;12.38;;
68614;SDS011;55593;51.994;5.882;2022-11-20T01:02:01;17.85;;;10.93;;
68614;SDS011;55593;51.994;5.882;2022-11-20T01:04:30;18.73;;;13.05;;
68614;SDS011;55593;51.994;5.882;2022-11-20T01:07:00;18.73;;;12.18;;
68614;SDS011;55593;51.994;5.882;2022-11-20T01:09:29;18.45;;;11.07;;
68614;SDS011;55593;51.994;5.882;2022-11-20T01:12:00;17.27;;;10.15;;
68614;SDS011;55593;51.994;5.882;2022-11-20T01:14:30;17.60;;;11.52;;
68614;SDS011;55593;51.994;5.882;2022-11-20T01:16:59;16.73;;;10.85;;
68614;SDS011;55593;51.994;5.882;2022-11-20T01:19:28;16.70;;;10.55;;
68614;SDS011;55593;51.994;5.882;2022-11-20T01:21:57;16.25;;;10.93;;
68614;SDS011;55593;51.994;5.882;2022-11-20T01:24:26;19.88;;;10.70;;
68614;SDS011;55593;51.994;5.882;2022-11-20T01:26:55;18.65;;;10.73;;
68614;SDS011;55593;51.994;5.882;2022-11-20T01:29:27;18.45;;;11.20;;
68614;SDS011;55593;51.994;5.882;2022-11-20T01:31:57;16.85;;;11.18;;
68614;SDS011;55593;51.994;5.882;2022-11-20T01:34:26;16.67;;;10.63;;
68614;SDS011;55593;51.994;5.882;2022-11-20T01:36:55;15.43;;;11.27;;
68614;SDS011;55593;51.994;5.882;2022-11-20T01:39:24;17.23;;;10.95;;
68614;SDS011;55593;51.994;5.882;2022-11-20T01:41:55;16.35;;;10.30;;
68614;SDS011;55593;51.994;5.882;2022-11-20T01:47:29;16.20;;;10.25;;
68614;SDS011;55593;51.994;5.882;2022-11-20T01:50:05;17.13;;;10.80;;
68614;SDS011;55593;51.994;5.882;2022-11-20T01:52:38;19.55;;;11.52;;
68614;SDS011;55593;51.994;5.882;2022-11-20T01:55:11;17.92;;;10.85;;
68614;SDS011;55593;51.994;5.882;2022-11-20T01:57:43;16.35;;;10.13;;
68614;SDS011;55593;51.994;5.882;2022-11-20T02:00:16;17.83;;;10.38;;
68614;SDS011;55593;51.994;5.882;2022-11-20T02:02:48;17.45;;;10.45;;
68614;SDS011;55593;51.994;5.882;2022-11-20T02:05:22;15.68;;;10.73;;
68614;SDS011;55593;51.994;5.882;2022-11-20T02:07:53;17.00;;;11.40;;
68614;SDS011;55593;51.994;5.882;2022-11-20T02:10:23;15.88;;;10.45;;
68614;SDS011;55593;51.994;5.882;2022-11-20T02:12:52;18.98;;;11.93;;
68614;SDS011;55593;51.994;5.882;2022-11-20T02:15:36;19.90;;;11.55;;
68614;SDS011;55593;51.994;5.882;2022-11-20T02:18:06;15.05;;;10.90;;
68614;SDS011;55593;51.994;5.882;2022-11-20T02:20:35;17.02;;;11.15;;
68614;SDS011;55593;51.994;5.882;2022-11-20T02:23:07;17.20;;;10.32;;
68614;SDS011;55593;51.994;5.882;2022-11-20T02:25:40;19.48;;;10.90;;
68614;SDS011;55593;51.994;5.882;2022-11-20T02:28:10;20.73;;;11.75;;
68614;SDS011;55593;51.994;5.882;2022-11-20T02:30:40;18.02;;;11.15;;
68614;SDS011;55593;51.994;5.882;2022-11-20T02:33:09;16.98;;;11.02;;
68614;SDS011;55593;51.994;5.882;2022-11-20T02:35:39;18.10;;;11.27;;
68614;SDS011;55593;51.994;5.882;2022-11-20T02:38:10;21.25;;;12.43;;
68614;SDS011;55593;51.994;5.882;2022-11-20T02:40:42;17.17;;;10.70;;
68614;SDS011;55593;51.994;5.882;2022-11-20T02:43:11;17.27;;;11.38;;
68614;SDS011;55593;51.994;5.882;2022-11-20T02:45:40;17.70;;;11.05;;
68614;SDS011;55593;51.994;5.882;2022-11-20T02:48:09;18.10;;;11.25;;
68614;SDS011;55593;51.994;5.882;2022-11-20T02:50:38;19.98;;;12.10;;
68614;SDS011;55593;51.994;5.882;2022-11-20T02:53:08;19.60;;;11.85;;
68614;SDS011;55593;51.994;5.882;2022-11-20T02:55:37;17.80;;;10.95;;
68614;SDS011;55593;51.994;5.882;2022-11-20T02:58:09;18.98;;;11.85;;
68614;SDS011;55593;51.994;5.882;2022-11-20T03:00:38;16.52;;;10.77;;
68614;SDS011;55593;51.994;5.882;2022-11-20T03:03:07;18.20;;;11.48;;
68614;SDS011;55593;51.994;5.882;2022-11-20T03:05:37;19.65;;;11.35;;
68614;SDS011;55593;51.994;5.882;2022-11-20T03:08:06;16.92;;;11.50;;
68614;SDS011;55593;51.994;5.882;2022-11-20T03:10:35;19.60;;;11.23;;
68614;SDS011;55593;51.994;5.882;2022-11-20T03:13:04;17.48;;;10.05;;
68614;SDS011;55593;51.994;5.882;2022-11-20T03:15:37;20.35;;;11.30;;
68614;SDS011;55593;51.994;5.882;2022-11-20T03:18:07;18.23;;;10.90;;
68614;SDS011;55593;51.994;5.882;2022-11-20T03:20:36;16.63;;;10.55;;
68614;SDS011;55593;51.994;5.882;2022-11-20T03:23:05;18.95;;;11.75;;
68614;SDS011;55593;51.994;5.882;2022-11-20T03:25:34;18.42;;;12.15;;
68614;SDS011;55593;51.994;5.882;2022-11-20T03:28:03;17.85;;;11.75;;
68614;SDS011;55593;51.994;5.882;2022-11-20T03:30:33;19.33;;;12.23;;
68614;SDS011;55593;51.994;5.882;2022-11-20T03:33:04;19.05;;;11.98;;
68614;SDS011;55593;51.994;5.882;2022-11-20T03:35:34;19.98;;;13.15;;
68614;SDS011;55593;51.994;5.882;2022-11-20T03:38:03;19.05;;;12.15;;
68614;SDS011;55593;51.994;5.882;2022-11-20T03:40:33;20.42;;;12.60;;
68614;SDS011;55593;51.994;5.882;2022-11-20T03:43:05;20.52;;;12.73;;
68614;SDS011;55593;51.994;5.882;2022-11-20T03:45:34;18.83;;;12.25;;
68614;SDS011;55593;51.994;5.882;2022-11-20T03:48:06;23.30;;;12.50;;
68614;SDS011;55593;51.994;5.882;2022-11-20T03:50:35;19.40;;;12.90;;
68614;SDS011;55593;51.994;5.882;2022-11-20T03:53:04;19.48;;;12.88;;
68614;SDS011;55593;51.994;5.882;2022-11-20T03:55:33;19.35;;;12.32;;
68614;SDS011;55593;51.994;5.882;2022-11-20T03:58:02;18.90;;;12.05;;
68614;SDS011;55593;51.994;5.882;2022-11-20T04:00:32;19.83;;;13.07;;
68614;SDS011;55593;51.994;5.882;2022-11-20T04:03:02;18.75;;;12.15;;
68614;SDS011;55593;51.994;5.882;2022-11-20T04:05:35;17.65;;;11.63;;
68614;SDS011;55593;51.994;5.882;2022-11-20T04:08:04;20.13;;;12.23;;
68614;SDS011;55593;51.994;5.882;2022-11-20T04:10:34;23.23;;;12.63;;
68614;SDS011;55593;51.994;5.882;2022-11-20T04:13:03;20.95;;;12.88;;
68614;SDS011;55593;51.994;5.882;2022-11-20T04:15:32;20.85;;;12.70;;
68614;SDS011;55593;51.994;5.882;2022-11-20T04:18:01;20.55;;;13.57;;
68614;SDS011;55593;51.994;5.882;2022-11-20T04:20:30;21.75;;;13.10;;
68614;SDS011;55593;51.994;5.882;2022-11-20T04:23:03;19.55;;;11.85;;
68614;SDS011;55593;51.994;5.882;2022-11-20T04:25:32;21.08;;;12.48;;
68614;SDS011;55593;51.994;5.882;2022-11-20T04:28:01;21.83;;;13.65;;
68614;SDS011;55593;51.994;5.882;2022-11-20T04:30:30;22.30;;;12.95;;
68614;SDS011;55593;51.994;5.882;2022-11-20T04:32:59;21.13;;;13.52;;
68614;SDS011;55593;51.994;5.882;2022-11-20T04:35:28;21.80;;;12.88;;
68614;SDS011;55593;51.994;5.882;2022-11-20T04:37:58;21.58;;;12.50;;
68614;SDS011;55593;51.994;5.882;2022-11-20T04:40:29;19.88;;;12.48;;
68614;SDS011;55593;51.994;5.882;2022-11-20T04:42:59;20.92;;;11.73;;
68614;SDS011;55593;51.994;5.882;2022-11-20T04:45:28;21.25;;;13.38;;
68614;SDS011;55593;51.994;5.882;2022-11-20T04:47:57;19.02;;;12.15;;
68614;SDS011;55593;51.994;5.882;2022-11-20T04:50:27;19.58;;;12.40;;
68614;SDS011;55593;51.994;5.882;2022-11-20T04:52:56;20.15;;;12.57;;
68614;SDS011;55593;51.994;5.882;2022-11-20T04:55:25;22.35;;;12.30;;
68614;SDS011;55593;51.994;5.882;2022-11-20T04:57:57;24.25;;;12.38;;
68614;SDS011;55593;51.994;5.882;2022-11-20T05:00:26;20.75;;;12.32;;
68614;SDS011;55593;51.994;5.882;2022-11-20T05:02:55;18.35;;;11.88;;
68614;SDS011;55593;51.994;5.882;2022-11-20T05:05:24;20.27;;;12.40;;
68614;SDS011;55593;51.994;5.882;2022-11-20T05:07:55;21.20;;;13.13;;
68614;SDS011;55593;51.994;5.882;2022-11-20T05:10:25;19.20;;;12.32;;
68614;SDS011;55593;51.994;5.882;2022-11-20T05:12:57;17.85;;;11.48;;
68614;SDS011;55593;51.994;5.882;2022-11-20T05:15:26;19.90;;;12.75;;
68614;SDS011;55593;51.994;5.882;2022-11-20T05:17:55;21.38;;;12.98;;
68614;SDS011;55593;51.994;5.882;2022-11-20T05:20:27;24.25;;;12.85;;
68614;SDS011;55593;51.994;5.882;2022-11-20T05:22:56;22.23;;;12.23;;
68614;SDS011;55593;51.994;5.882;2022-11-20T05:25:26;21.58;;;13.85;;
68614;SDS011;55593;51.994;5.882;2022-11-20T05:27:57;20.02;;;12.93;;
68614;SDS011;55593;51.994;5.882;2022-11-20T05:30:26;21.35;;;13.32;;
68614;SDS011;55593;51.994;5.882;2022-11-20T05:32:56;20.55;;;12.82;;
68614;SDS011;55593;51.994;5.882;2022-11-20T05:35:25;20.58;;;13.38;;
68614;SDS011;55593;51.994;5.882;2022-11-20T05:37:57;21.00;;;13.30;;
68614;SDS011;55593;51.994;5.882;2022-11-20T05:40:26;21.13;;;13.05;;
68614;SDS011;55593;51.994;5.882;2022-11-20T05:42:58;27.42;;;14.93;;
68614;SDS011;55593;51.994;5.882;2022-11-20T05:45:28;20.42;;;12.93;;
68614;SDS011;55593;51.994;5.882;2022-11-20T05:47:57;21.92;;;12.27;;
68614;SDS011;55593;51.994;5.882;2022-11-20T05:50:27;19.50;;;12.13;;
68614;SDS011;55593;51.994;5.882;2022-11-20T05:52:57;20.42;;;12.95;;
68614;SDS011;55593;51.994;5.882;2022-11-20T05:55:26;23.42;;;13.70;;
68614;SDS011;55593;51.994;5.882;2022-11-20T05:57:58;20.95;;;12.57;;
68614;SDS011;55593;51.994;5.882;2022-11-20T06:00:27;20.38;;;12.45;;
68614;SDS011;55593;51.994;5.882;2022-11-20T06:02:57;17.92;;;11.82;;
68614;SDS011;55593;51.994;5.882;2022-11-20T06:05:26;20.77;;;12.95;;
68614;SDS011;55593;51.994;5.882;2022-11-20T06:07:55;22.52;;;13.18;;
68614;SDS011;55593;51.994;5.882;2022-11-20T06:10:24;21.75;;;13.77;;
68614;SDS011;55593;51.994;5.882;2022-11-20T06:12:53;24.40;;;13.15;;
68614;SDS011;55593;51.994;5.882;2022-11-20T06:15:28;21.02;;;13.27;;
68614;SDS011;55593;51.994;5.882;2022-11-20T06:17:57;26.02;;;14.10;;
68614;SDS011;55593;51.994;5.882;2022-11-20T06:20:27;23.50;;;13.65;;
68614;SDS011;55593;51.994;5.882;2022-11-20T06:22:56;22.13;;;13.07;;
68614;SDS011;55593;51.994;5.882;2022-11-20T06:25:25;24.63;;;13.73;;
68614;SDS011;55593;51.994;5.882;2022-11-20T06:27:54;22.27;;;13.95;;
68614;SDS011;55593;51.994;5.882;2022-11-20T06:30:26;22.17;;;13.13;;
68614;SDS011;55593;51.994;5.882;2022-11-20T06:32:55;22.67;;;14.05;;
68614;SDS011;55593;51.994;5.882;2022-11-20T06:35:25;25.67;;;15.13;;
68614;SDS011;55593;51.994;5.882;2022-11-20T06:37:54;24.92;;;14.32;;
68614;SDS011;55593;51.994;5.882;2022-11-20T06:40:24;24.60;;;15.98;;
68614;SDS011;55593;51.994;5.882;2022-11-20T06:42:53;25.88;;;15.93;;
68614;SDS011;55593;51.994;5.882;2022-11-20T06:45:25;24.77;;;15.73;;
68614;SDS011;55593;51.994;5.882;2022-11-20T06:47:56;27.77;;;16.25;;
68614;SDS011;55593;51.994;5.882;2022-11-20T06:50:26;30.15;;;17.05;;
68614;SDS011;55593;51.994;5.882;2022-11-20T06:52:55;26.13;;;15.77;;
68614;SDS011;55593;51.994;5.882;2022-11-20T06:55:24;27.40;;;15.90;;
68614;SDS011;55593;51.994;5.882;2022-11-20T06:57:53;25.75;;;15.45;;
68614;SDS011;55593;51.994;5.882;2022-11-20T07:00:22;24.20;;;14.95;;
68614;SDS011;55593;51.994;5.882;2022-11-20T07:02:54;26.48;;;15.45;;
68614;SDS011;55593;51.994;5.882;2022-11-20T07:05:23;25.73;;;15.95;;
68614;SDS011;55593;51.994;5.882;2022-11-20T07:07:55;23.77;;;15.10;;
68614;SDS011;55593;51.994;5.882;2022-11-20T07:10:24;24.15;;;15.52;;
68614;SDS011;55593;51.994;5.882;2022-11-20T07:12:54;22.48;;;14.30;;
68614;SDS011;55593;51.994;5.882;2022-11-20T07:15:26;25.73;;;15.02;;
68614;SDS011;55593;51.994;5.882;2022-11-20T07:17:55;26.83;;;15.20;;
68614;SDS011;55593;51.994;5.882;2022-11-20T07:20:27;28.08;;;16.77;;
68614;SDS011;55593;51.994;5.882;2022-11-20T07:22:56;28.73;;;16.38;;
68614;SDS011;55593;51.994;5.882;2022-11-20T07:25:26;30.20;;;16.58;;
68614;SDS011;55593;51.994;5.882;2022-11-20T07:27:56;23.52;;;15.07;;
68614;SDS011;55593;51.994;5.882;2022-11-20T07:30:29;21.45;;;14.02;;
68614;SDS011;55593;51.994;5.882;2022-11-20T07:32:58;24.48;;;14.95;;
68614;SDS011;55593;51.994;5.882;2022-11-20T07:35:27;25.17;;;15.55;;
68614;SDS011;55593;51.994;5.882;2022-11-20T07:37:56;25.02;;;14.90;;
68614;SDS011;55593;51.994;5.882;2022-11-20T07:40:26;22.45;;;13.98;;
68614;SDS011;55593;51.994;5.882;2022-11-20T07:42:55;24.05;;;14.70;;
68614;SDS011;55593;51.994;5.882;2022-11-20T07:45:24;23.33;;;14.90;;
68614;SDS011;55593;51.994;5.882;2022-11-20T07:47:56;24.38;;;15.75;;
68614;SDS011;55593;51.994;5.882;2022-11-20T07:50:25;25.83;;;16.40;;
68614;SDS011;55593;51.994;5.882;2022-11-20T07:52:59;23.95;;;16.08;;
68614;SDS011;55593;51.994;5.882;2022-11-20T07:55:29;25.02;;;14.82;;
68614;SDS011;55593;51.994;5.882;2022-11-20T07:57:59;26.10;;;15.73;;
68614;SDS011;55593;51.994;5.882;2022-11-20T08:00:31;25.35;;;16.42;;
68614;SDS011;55593;51.994;5.882;2022-11-20T08:03:06;30.13;;;16.27;;
68614;SDS011;55593;51.994;5.882;2022-11-20T08:05:35;25.58;;;15.82;;
68614;SDS011;55593;51.994;5.882;2022-11-20T08:08:07;26.10;;;16.45;;
68614;SDS011;55593;51.994;5.882;2022-11-20T08:10:37;26.80;;;16.45;;
68614;SDS011;55593;51.994;5.882;2022-11-20T08:13:06;26.05;;;16.40;;
68614;SDS011;55593;51.994;5.882;2022-11-20T08:15:59;29.58;;;19.77;;
68614;SDS011;55593;51.994;5.882;2022-11-20T08:18:31;34.63;;;20.38;;
68614;SDS011;55593;51.994;5.882;2022-11-20T08:21:01;30.50;;;17.95;;
68614;SDS011;55593;51.994;5.882;2022-11-20T08:23:31;38.63;;;20.13;;
68614;SDS011;55593;51.994;5.882;2022-11-20T08:26:00;35.55;;;19.88;;
68614;SDS011;55593;51.994;5.882;2022-11-20T08:28:29;29.08;;;17.92;;
68614;SDS011;55593;51.994;5.882;2022-11-20T08:30:58;27.88;;;17.48;;
68614;SDS011;55593;51.994;5.882;2022-11-20T08:33:28;30.50;;;18.73;;
68614;SDS011;55593;51.994;5.882;2022-11-20T08:36:00;31.48;;;18.42;;
68614;SDS011;55593;51.994;5.882;2022-11-20T08:38:30;29.88;;;18.52;;
68614;SDS011;55593;51.994;5.882;2022-11-20T08:40:59;31.08;;;19.65;;
68614;SDS011;55593;51.994;5.882;2022-11-20T08:43:42;30.08;;;18.25;;
68614;SDS011;55593;51.994;5.882;2022-11-20T08:46:11;32.22;;;18.17;;
68614;SDS011;55593;51.994;5.882;2022-11-20T08:48:43;29.75;;;18.85;;
68614;SDS011;55593;51.994;5.882;2022-11-20T08:51:12;35.22;;;20.08;;
68614;SDS011;55593;51.994;5.882;2022-11-20T08:53:42;32.05;;;18.35;;
68614;SDS011;55593;51.994;5.882;2022-11-20T08:56:11;32.22;;;20.08;;
68614;SDS011;55593;51.994;5.882;2022-11-20T08:58:40;33.50;;;20.90;;
68614;SDS011;55593;51.994;5.882;2022-11-20T09:01:09;31.92;;;20.08;;
68614;SDS011;55593;51.994;5.882;2022-11-20T09:03:39;35.58;;;22.02;;
68614;SDS011;55593;51.994;5.882;2022-11-20T09:06:10;33.10;;;20.77;;
68614;SDS011;55593;51.994;5.882;2022-11-20T09:08:40;29.75;;;19.83;;
68614;SDS011;55593;51.994;5.882;2022-11-20T09:11:09;30.10;;;19.38;;
68614;SDS011;55593;51.994;5.882;2022-11-20T09:13:38;28.45;;;17.58;;
68614;SDS011;55593;51.994;5.882;2022-11-20T09:16:08;28.88;;;17.83;;
68614;SDS011;55593;51.994;5.882;2022-11-20T09:18:38;32.78;;;18.67;;
68614;SDS011;55593;51.994;5.882;2022-11-20T09:21:11;26.95;;;18.52;;
68614;SDS011;55593;51.994;5.882;2022-11-20T09:23:41;31.02;;;19.35;;
68614;SDS011;55593;51.994;5.882;2022-11-20T09:26:11;29.85;;;19.63;;
68614;SDS011;55593;51.994;5.882;2022-11-20T09:28:41;34.72;;;19.02;;
68614;SDS011;55593;51.994;5.882;2022-11-20T09:31:18;32.35;;;19.10;;
68614;SDS011;55593;51.994;5.882;2022-11-20T09:33:51;29.00;;;19.02;;
68614;SDS011;55593;51.994;5.882;2022-11-20T09:36:26;32.72;;;18.73;;
68614;SDS011;55593;51.994;5.882;2022-11-20T09:38:55;29.15;;;18.88;;
68614;SDS011;55593;51.994;5.882;2022-11-20T09:41:42;32.97;;;19.52;;
68614;SDS011;55593;51.994;5.882;2022-11-20T09:44:25;37.60;;;19.13;;
68614;SDS011;55593;51.994;5.882;2022-11-20T09:47:05;31.70;;;18.70;;
68614;SDS011;55593;51.994;5.882;2022-11-20T09:49:40;28.42;;;19.27;;
68614;SDS011;55593;51.994;5.882;2022-11-20T09:52:25;30.42;;;20.63;;
68614;SDS011;55593;51.994;5.882;2022-11-20T09:54:59;32.97;;;19.60;;
68614;SDS011;55593;51.994;5.882;2022-11-20T09:57:31;32.88;;;20.30;;
68614;SDS011;55593;51.994;5.882;2022-11-20T10:00:04;34.30;;;19.77;;
68614;SDS011;55593;51.994;5.882;2022-11-20T10:02:42;31.13;;;19.13;;
68614;SDS011;55593;51.994;5.882;2022-11-20T10:05:15;31.23;;;19.15;;
68614;SDS011;55593;51.994;5.882;2022-11-20T10:07:51;32.65;;;20.20;;
68614;SDS011;55593;51.994;5.882;2022-11-20T10:10:27;34.47;;;20.88;;
68614;SDS011;55593;51.994;5.882;2022-11-20T10:13:08;33.20;;;20.17;;
68614;SDS011;55593;51.994;5.882;2022-11-20T10:15:46;31.60;;;19.10;;
68614;SDS011;55593;51.994;5.882;2022-11-20T10:18:26;35.78;;;21.60;;
68614;SDS011;55593;51.994;5.882;2022-11-20T10:21:02;33.75;;;20.83;;
68614;SDS011;55593;51.994;5.882;2022-11-20T10:26:38;35.30;;;20.35;;
68614;SDS011;55593;51.994;5.882;2022-11-20T10:29:13;33.22;;;20.85;;
68614;SDS011;55593;51.994;5.882;2022-11-20T10:31:45;37.10;;;21.42;;
68614;SDS011;55593;51.994;5.882;2022-11-20T10:34:18;35.88;;;22.08;;
68614;SDS011;55593;51.994;5.882;2022-11-20T10:36:52;32.83;;;21.75;;
68614;SDS011;55593;51.994;5.882;2022-11-20T10:39:29;34.92;;;22.42;;
68614;SDS011;55593;51.994;5.882;2022-11-20T10:42:01;37.35;;;21.65;;
68614;SDS011;55593;51.994;5.882;2022-11-20T10:44:31;35.38;;;23.17;;
68614;SDS011;55593;51.994;5.882;2022-11-20T10:47:14;35.58;;;21.73;;
68614;SDS011;55593;51.994;5.882;2022-11-20T10:49:44;40.13;;;24.30;;
68614;SDS011;55593;51.994;5.882;2022-11-20T10:52:17;37.50;;;22.77;;
68614;SDS011;55593;51.994;5.882;2022-11-20T10:54:53;40.22;;;28.40;;
68614;SDS011;55593;51.994;5.882;2022-11-20T10:57:29;42.58;;;21.98;;
68614;SDS011;55593;51.994;5.882;2022-11-20T11:00:05;34.15;;;21.52;;
68614;SDS011;55593;51.994;5.882;2022-11-20T11:02:37;36.22;;;22.88;;
68614;SDS011;55593;51.994;5.882;2022-11-20T11:05:11;33.03;;;21.65;;
68614;SDS011;55593;51.994;5.882;2022-11-20T11:07:55;36.03;;;21.73;;
68614;SDS011;55593;51.994;5.882;2022-11-20T11:10:28;37.53;;;23.75;;
68614;SDS011;55593;51.994;5.882;2022-11-20T11:13:01;38.50;;;23.45;;
68614;SDS011;55593;51.994;5.882;2022-11-20T11:15:36;36.60;;;22.27;;
68614;SDS011;55593;51.994;5.882;2022-11-20T11:18:08;41.67;;;23.05;;
68614;SDS011;55593;51.994;5.882;2022-11-20T11:20:38;38.53;;;23.35;;
68614;SDS011;55593;51.994;5.882;2022-11-20T11:23:10;41.10;;;25.75;;
68614;SDS011;55593;51.994;5.882;2022-11-20T11:25:59;41.47;;;25.50;;
68614;SDS011;55593;51.994;5.882;2022-11-20T11:28:29;36.63;;;23.13;;
68614;SDS011;55593;51.994;5.882;2022-11-20T11:30:58;42.72;;;25.52;;
68614;SDS011;55593;51.994;5.882;2022-11-20T11:33:29;41.85;;;25.25;;
68614;SDS011;55593;51.994;5.882;2022-11-20T11:36:00;38.45;;;24.77;;
68614;SDS011;55593;51.994;5.882;2022-11-20T11:38:32;44.15;;;25.52;;
68614;SDS011;55593;51.994;5.882;2022-11-20T11:41:07;40.95;;;26.20;;
68614;SDS011;55593;51.994;5.882;2022-11-20T11:43:39;39.97;;;24.58;;
68614;SDS011;55593;51.994;5.882;2022-11-20T11:46:29;42.63;;;26.23;;
68614;SDS011;55593;51.994;5.882;2022-11-20T11:49:00;54.13;;;30.08;;
68614;SDS011;55593;51.994;5.882;2022-11-20T11:51:32;49.03;;;30.17;;
68614;SDS011;55593;51.994;5.882;2022-11-20T11:54:05;51.10;;;29.67;;
68614;SDS011;55593;51.994;5.882;2022-11-20T11:56:44;47.17;;;28.25;;
68614;SDS011;55593;51.994;5.882;2022-11-20T11:59:15;36.20;;;23.23;;
68614;SDS011;55593;51.994;5.882;2022-11-20T12:01:51;37.83;;;25.73;;
68614;SDS011;55593;51.994;5.882;2022-11-20T12:04:25;34.55;;;22.17;;
68614;SDS011;55593;51.994;5.882;2022-11-20T12:07:07;42.53;;;23.60;;
68614;SDS011;55593;51.994;5.882;2022-11-20T12:09:41;31.20;;;20.10;;
68614;SDS011;55593;51.994;5.882;2022-11-20T12:12:18;33.40;;;23.15;;
68614;SDS011;55593;51.994;5.882;2022-11-20T12:14:49;40.00;;;24.58;;
68614;SDS011;55593;51.994;5.882;2022-11-20T12:17:18;40.85;;;25.30;;
68614;SDS011;55593;51.994;5.882;2022-11-20T12:19:47;38.50;;;23.80;;
68614;SDS011;55593;51.994;5.882;2022-11-20T12:22:18;38.33;;;24.02;;
68614;SDS011;55593;51.994;5.882;2022-11-20T12:24:54;45.65;;;28.58;;
68614;SDS011;55593;51.994;5.882;2022-11-20T12:30:20;38.97;;;26.92;;
68614;SDS011;55593;51.994;5.882;2022-11-20T12:32:57;39.28;;;25.90;;
68614;SDS011;55593;51.994;5.882;2022-11-20T12:35:56;41.10;;;26.88;;
68614;SDS011;55593;51.994;5.882;2022-11-20T12:41:47;57.65;;;37.67;;
68614;SDS011;55593;51.994;5.882;2022-11-20T12:47:51;38.58;;;25.88;;
68614;SDS011;55593;51.994;5.882;2022-11-20T12:50:31;38.80;;;25.45;;
68614;SDS011;55593;51.994;5.882;2022-11-20T12:53:07;42.58;;;25.17;;
68614;SDS011;55593;51.994;5.882;2022-11-20T12:55:42;36.90;;;24.48;;
68614;SDS011;55593;51.994;5.882;2022-11-20T12:58:18;37.55;;;23.55;;
68614;SDS011;55593;51.994;5.882;2022-11-20T13:00:55;32.63;;;23.08;;
68614;SDS011;55593;51.994;5.882;2022-11-20T13:03:36;36.90;;;23.63;;
68614;SDS011;55593;51.994;5.882;2022-11-20T13:06:12;39.30;;;25.17;;
68614;SDS011;55593;51.994;5.882;2022-11-20T13:08:43;39.97;;;25.83;;
68614;SDS011;55593;51.994;5.882;2022-11-20T13:11:18;39.30;;;25.55;;
68614;SDS011;55593;51.994;5.882;2022-11-20T13:13:56;40.60;;;25.88;;
68614;SDS011;55593;51.994;5.882;2022-11-20T13:16:41;42.47;;;26.75;;
68614;SDS011;55593;51.994;5.882;2022-11-20T13:19:16;41.03;;;26.10;;
68614;SDS011;55593;51.994;5.882;2022-11-20T13:21:46;42.92;;;27.42;;
68614;SDS011;55593;51.994;5.882;2022-11-20T13:24:26;44.30;;;27.98;;
68614;SDS011;55593;51.994;5.882;2022-11-20T13:27:16;43.67;;;26.92;;
68614;SDS011;55593;51.994;5.882;2022-11-20T13:30:03;43.83;;;26.38;;
68614;SDS011;55593;51.994;5.882;2022-11-20T13:32:55;46.95;;;29.00;;
68614;SDS011;55593;51.994;5.882;2022-11-20T13:35:28;48.00;;;28.92;;
68614;SDS011;55593;51.994;5.882;2022-11-20T13:37:59;44.08;;;29.05;;
68614;SDS011;55593;51.994;5.882;2022-11-20T13:40:33;47.28;;;28.13;;
68614;SDS011;55593;51.994;5.882;2022-11-20T13:43:15;46.58;;;29.65;;
68614;SDS011;55593;51.994;5.882;2022-11-20T13:45:55;49.15;;;31.08;;
68614;SDS011;55593;51.994;5.882;2022-11-20T13:48:29;49.20;;;28.08;;
68614;SDS011;55593;51.994;5.882;2022-11-20T13:51:04;49.63;;;28.42;;
68614;SDS011;55593;51.994;5.882;2022-11-20T13:54:00;50.25;;;28.38;;
68614;SDS011;55593;51.994;5.882;2022-11-20T13:56:48;49.35;;;28.58;;
68614;SDS011;55593;51.994;5.882;2022-11-20T13:59:27;58.65;;;32.20;;
68614;SDS011;55593;51.994;5.882;2022-11-20T14:02:05;52.13;;;30.10;;
68614;SDS011;55593;51.994;5.882;2022-11-20T14:04:42;55.53;;;31.45;;
68614;SDS011;55593;51.994;5.882;2022-11-20T14:07:13;51.70;;;29.58;;
68614;SDS011;55593;51.994;5.882;2022-11-20T14:09:49;58.28;;;33.55;;
68614;SDS011;55593;51.994;5.882;2022-11-20T14:12:20;50.33;;;30.63;;
68614;SDS011;55593;51.994;5.882;2022-11-20T14:14:51;57.35;;;32.30;;
68614;SDS011;55593;51.994;5.882;2022-11-20T14:17:22;64.00;;;31.80;;
68614;SDS011;55593;51.994;5.882;2022-11-20T14:19:55;55.20;;;32.58;;
68614;SDS011;55593;51.994;5.882;2022-11-20T14:22:26;55.17;;;31.92;;
68614;SDS011;55593;51.994;5.882;2022-11-20T14:25:03;56.10;;;34.05;;
68614;SDS011;55593;51.994;5.882;2022-11-20T14:27:35;53.30;;;32.97;;
68614;SDS011;55593;51.994;5.882;2022-11-20T14:30:06;56.58;;;32.65;;
68614;SDS011;55593;51.994;5.882;2022-11-20T14:35:14;54.80;;;32.38;;
68614;SDS011;55593;51.994;5.882;2022-11-20T14:37:46;54.53;;;31.45;;
68614;SDS011;55593;51.994;5.882;2022-11-20T14:40:26;56.15;;;32.47;;
68614;SDS011;55593;51.994;5.882;2022-11-20T14:42:57;58.22;;;33.05;;
68614;SDS011;55593;51.994;5.882;2022-11-20T14:45:27;57.60;;;32.92;;
68614;SDS011;55593;51.994;5.882;2022-11-20T14:47:57;56.45;;;31.85;;
68614;SDS011;55593;51.994;5.882;2022-11-20T14:50:29;55.67;;;33.00;;
68614;SDS011;55593;51.994;5.882;2022-11-20T14:52:59;60.92;;;34.42;;
68614;SDS011;55593;51.994;5.882;2022-11-20T14:55:30;61.88;;;35.33;;
68614;SDS011;55593;51.994;5.882;2022-11-20T14:58:00;61.13;;;35.35;;
68614;SDS011;55593;51.994;5.882;2022-11-20T15:00:30;61.65;;;34.63;;
68614;SDS011;55593;51.994;5.882;2022-11-20T15:03:01;59.92;;;35.97;;
68614;SDS011;55593;51.994;5.882;2022-11-20T15:08:18;67.05;;;37.42;;
68614;SDS011;55593;51.994;5.882;2022-11-20T15:10:47;68.15;;;37.97;;